Time;durP1;ratioP1;P1;durP2;ratioP2;P2;SDS_P1;SDS_P2;PMS_P1;PMS_P2;Temp;Humidity;BMP_temperature;BMP_pressure;BME280_temperature;BME280_humidity;BME280_pressure;Samples;Min_cycle;Max_cycle;Signal;HPM_P1;HPM_P2
2022/05/01 00:00:35;;;;;;;4.38;1.58;;;16.90;99.90;;;;;;5043456;28;20096;-69
2022/05/01 00:03:02;;;;;;;2.58;1.60;;;17.10;99.90;;;;;;5040981;28;20124;-71
2022/05/01 00:05:29;;;;;;;3.22;1.10;;;17.30;99.90;;;;;;5044271;28;20045;-70
2022/05/01 00:07:58;;;;;;;2.38;1.40;;;17.50;99.90;;;;;;5043599;28;20037;-71
2022/05/01 00:10:26;;;;;;;4.63;1.40;;;17.80;99.90;;;;;;5041384;28;20075;-65
2022/05/01 00:12:52;;;;;;;3.88;1.60;;;18.00;99.90;;;;;;5044160;28;20040;-67
2022/05/01 00:15:20;;;;;;;4.32;1.35;;;18.00;99.90;;;;;;5043256;28;20029;-70
2022/05/01 00:17:47;;;;;;;4.78;1.60;;;18.20;99.90;;;;;;5046868;28;20059;-70
2022/05/01 00:20:15;;;;;;;3.33;1.95;;;18.60;99.90;;;;;;5038087;28;20121;-67
2022/05/01 00:22:42;;;;;;;4.45;1.55;;;18.90;99.90;;;;;;5045076;28;20025;-67
2022/05/01 00:25:09;;;;;;;4.10;1.58;;;19.20;99.90;;;;;;5040502;28;20078;-70
2022/05/01 00:27:36;;;;;;;3.53;1.90;;;19.30;99.90;;;;;;5043798;28;20360;-70
2022/05/01 00:30:05;;;;;;;4.28;1.67;;;19.40;99.90;;;;;;5039868;28;20476;-66
2022/05/01 00:36:25;;;;;;;3.45;1.60;;;19.30;99.90;;;;;;5043551;28;20025;-67
2022/05/01 00:38:04;;;;;;;4.43;1.50;;;19.40;99.90;;;;;;5038965;28;20083;-66
2022/05/01 00:40:31;;;;;;;1.95;1.30;;;19.60;99.90;;;;;;5025526;28;20443;-66
2022/05/01 00:43:04;;;;;;;8.95;7.60;;;19.40;99.90;;;;;;5038258;28;20017;-70
2022/05/01 00:45:32;;;;;;;4.78;1.90;;;19.30;99.90;;;;;;5042351;28;20021;-70
2022/05/01 00:47:59;;;;;;;3.05;1.70;;;19.40;99.90;;;;;;5040590;28;20037;-70
2022/05/01 00:50:26;;;;;;;2.72;1.50;;;19.50;99.90;;;;;;5046095;28;20025;-69
2022/05/01 00:52:54;;;;;;;3.33;1.30;;;20.00;99.90;;;;;;5018023;28;20037;-61
2022/05/01 00:55:22;;;;;;;2.67;1.75;;;20.50;99.90;;;;;;5049032;28;20123;-65
2022/05/01 00:57:49;;;;;;;16.42;14.77;;;20.70;99.90;;;;;;5038987;28;20041;-62
2022/05/01 01:00:21;;;;;;;3.88;1.83;;;20.60;99.10;;;;;;5043445;28;20112;-62
2022/05/01 01:02:48;;;;;;;3.53;1.67;;;20.30;97.80;;;;;;5040096;28;20115;-61
2022/05/01 01:05:16;;;;;;;6.00;3.10;;;19.90;97.40;;;;;;5048197;28;20013;-67
2022/05/01 01:07:43;;;;;;;6.15;3.85;;;19.90;98.20;;;;;;5037466;28;20025;-64
2022/05/01 01:10:11;;;;;;;4.15;1.60;;;20.00;99.30;;;;;;5048388;28;20013;-62
2022/05/01 01:12:56;;;;;;;4.82;1.75;;;20.30;99.30;;;;;;5007631;28;20033;-67
2022/05/01 01:15:28;;;;;;;2.42;1.30;;;20.30;99.90;;;;;;5033200;28;20107;-62
2022/05/01 01:17:56;;;;;;;3.20;1.40;;;20.40;99.30;;;;;;5036638;28;20111;-61
2022/05/01 01:20:28;;;;;;;7.63;4.70;;;20.40;98.50;;;;;;5037580;28;20044;-63
2022/05/01 01:22:57;;;;;;;2.63;1.70;;;20.20;98.80;;;;;;5036191;28;20040;-61
2022/05/01 01:25:29;;;;;;;2.70;1.73;;;20.40;98.70;;;;;;5043292;28;20458;-61
2022/05/01 01:28:02;;;;;;;3.00;1.10;;;21.00;97.20;;;;;;5040623;28;20021;-66
2022/05/01 01:33:16;;;;;;;3.00;1.20;;;21.60;96.00;;;;;;5042030;28;20044;-62
2022/05/01 01:35:45;;;;;;;3.85;2.58;;;21.80;95.80;;;;;;5040049;28;20041;-62
2022/05/01 01:38:12;;;;;;;2.15;1.10;;;22.10;97.20;;;;;;5041760;28;20053;-62
2022/05/01 01:40:43;;;;;;;2.70;1.05;;;22.40;95.80;;;;;;5037880;28;20075;-62
2022/05/01 01:43:11;;;;;;;4.15;1.58;;;22.30;95.10;;;;;;5036746;28;20029;-62
2022/05/01 01:45:39;;;;;;;2.80;0.90;;;22.00;95.40;;;;;;5037924;28;20132;-62
2022/05/01 01:48:11;;;;;;;1.80;0.95;;;21.80;95.40;;;;;;5042899;28;20078;-66
2022/05/01 01:51:06;;;;;;;1.88;1.23;;;21.60;96.00;;;;;;5031063;28;20040;-64
2022/05/01 01:53:38;;;;;;;4.22;1.10;;;22.20;95.50;;;;;;5038912;28;20036;-64
2022/05/01 01:56:08;;;;;;;2.40;0.80;;;22.50;94.60;;;;;;5043404;28;20154;-63
2022/05/01 01:58:36;;;;;;;3.47;1.35;;;22.40;95.00;;;;;;5044657;28;20037;-65
2022/05/01 02:01:05;;;;;;;2.22;1.10;;;22.40;94.60;;;;;;5039613;28;20369;-66
2022/05/01 02:03:36;;;;;;;1.80;0.70;;;22.20;93.50;;;;;;5043410;28;20625;-63
2022/05/01 02:06:04;;;;;;;2.53;1.10;;;21.80;96.00;;;;;;5043089;28;20037;-62
2022/05/01 02:08:34;;;;;;;2.30;1.10;;;22.00;97.00;;;;;;5041297;28;20045;-63
2022/05/01 02:11:03;;;;;;;1.83;0.90;;;22.70;94.70;;;;;;5043202;28;20104;-64
2022/05/01 02:13:30;;;;;;;1.65;0.93;;;23.30;95.60;;;;;;5043704;28;20068;-64
2022/05/01 02:15:57;;;;;;;2.90;0.93;;;23.80;94.80;;;;;;5042961;28;20025;-67
2022/05/01 02:18:25;;;;;;;2.17;1.15;;;23.90;93.50;;;;;;5045554;28;20341;-66
2022/05/01 02:23:37;;;;;;;5.38;1.65;;;24.00;92.70;;;;;;5042706;28;20064;-63
2022/05/01 02:26:04;;;;;;;3.08;1.42;;;24.10;91.70;;;;;;5044147;28;20025;-68
2022/05/01 02:28:32;;;;;;;4.53;2.50;;;24.00;92.40;;;;;;5043492;28;20544;-65
2022/05/01 02:30:59;;;;;;;2.20;0.70;;;23.90;91.60;;;;;;5043409;28;20033;-64
2022/05/01 02:33:26;;;;;;;1.98;1.00;;;23.80;91.10;;;;;;5042822;28;21480;-63
2022/05/01 02:35:53;;;;;;;4.72;1.27;;;23.40;92.20;;;;;;5022666;28;20037;-63
2022/05/01 02:38:20;;;;;;;3.70;1.00;;;23.60;92.60;;;;;;5042667;28;20499;-68
2022/05/01 02:40:47;;;;;;;5.13;1.25;;;23.90;93.20;;;;;;5046345;28;20052;-63
2022/05/01 02:43:14;;;;;;;4.10;1.35;;;24.40;93.30;;;;;;5042482;28;20025;-63
2022/05/01 02:45:41;;;;;;;3.70;2.13;;;24.60;92.60;;;;;;5044742;28;20029;-62
2022/05/01 02:48:08;;;;;;;4.03;1.83;;;24.80;92.60;;;;;;5042244;28;20025;-66
2022/05/01 02:50:36;;;;;;;4.18;1.40;;;24.70;91.60;;;;;;5043834;28;20029;-63
2022/05/01 02:53:04;;;;;;;2.78;1.05;;;24.50;92.00;;;;;;5041060;28;20101;-66
2022/05/01 02:55:32;;;;;;;1.67;0.93;;;24.60;91.60;;;;;;5044301;28;20032;-64
2022/05/01 02:57:59;;;;;;;4.32;1.02;;;24.30;91.30;;;;;;5042341;28;20036;-66
2022/05/01 03:00:26;;;;;;;4.90;0.98;;;24.20;91.60;;;;;;5043258;28;20028;-63
2022/05/01 03:02:55;;;;;;;4.78;1.20;;;24.20;91.30;;;;;;5042068;28;20032;-63
2022/05/01 03:05:24;;;;;;;4.80;1.83;;;24.20;92.10;;;;;;5041586;28;20017;-62
2022/05/01 03:07:55;;;;;;;6.03;3.80;;;24.30;93.00;;;;;;5043472;28;20075;-64
2022/05/01 03:10:24;;;;;;;4.45;1.50;;;24.50;93.00;;;;;;5042781;28;20075;-63
2022/05/01 03:12:51;;;;;;;3.80;2.03;;;24.50;92.50;;;;;;5040973;28;20517;-66
2022/05/01 03:15:18;;;;;;;6.22;2.47;;;24.60;92.80;;;;;;5042566;28;20086;-62
2022/05/01 03:23:15;;;;;;;5.10;1.30;;;24.90;94.20;;;;;;5043147;28;20032;-64
2022/05/01 03:25:42;;;;;;;6.10;1.95;;;25.10;93.10;;;;;;5041416;28;20021;-64
2022/05/01 03:28:09;;;;;;;4.72;1.40;;;25.20;93.50;;;;;;5043709;28;20037;-65
2022/05/01 03:30:36;;;;;;;4.97;1.95;;;25.20;92.60;;;;;;5042301;28;20021;-65
2022/05/01 03:33:05;;;;;;;4.88;1.65;;;25.20;93.00;;;;;;5041271;28;20136;-62
2022/05/01 03:35:35;;;;;;;4.25;1.45;;;24.80;92.50;;;;;;5041528;28;20021;-63
2022/05/01 03:38:03;;;;;;;4.90;2.00;;;24.90;93.30;;;;;;5041868;28;20154;-67
2022/05/01 03:40:31;;;;;;;5.43;2.05;;;24.90;92.90;;;;;;5040467;28;20095;-68
2022/05/01 03:42:57;;;;;;;5.90;2.00;;;24.90;94.10;;;;;;5039853;28;20021;-69
2022/05/01 03:45:25;;;;;;;8.15;2.38;;;24.90;94.00;;;;;;5041812;28;20025;-67
2022/05/01 03:47:51;;;;;;;3.75;2.08;;;25.10;94.10;;;;;;5043752;28;20025;-67
2022/05/01 03:50:19;;;;;;;6.72;2.28;;;25.20;94.00;;;;;;5042363;28;20060;-63
2022/05/01 03:52:46;;;;;;;9.35;3.30;;;25.30;93.50;;;;;;5042908;28;20065;-63
2022/05/01 03:55:13;;;;;;;12.32;5.00;;;25.30;93.90;;;;;;5043496;28;20037;-63
2022/05/01 03:57:41;;;;;;;5.72;2.80;;;25.30;93.80;;;;;;5042697;28;20036;-63
2022/05/01 04:00:18;;;;;;;5.25;2.40;;;25.30;93.10;;;;;;5044770;28;20029;-67
2022/05/01 04:02:46;;;;;;;8.50;2.55;;;25.30;93.00;;;;;;5041174;28;20557;-67
2022/05/01 04:05:14;;;;;;;6.22;3.05;;;25.20;94.50;;;;;;5041532;28;20021;-62
2022/05/01 04:07:42;;;;;;;7.50;3.55;;;25.30;94.20;;;;;;5039021;28;20484;-66
2022/05/01 04:10:10;;;;;;;7.43;2.70;;;25.30;94.70;;;;;;5038483;28;20621;-63
2022/05/01 04:12:39;;;;;;;4.90;2.20;;;25.30;94.50;;;;;;5040854;28;20157;-63
2022/05/01 04:15:09;;;;;;;8.00;2.45;;;25.30;94.10;;;;;;5042975;28;20028;-62
2022/05/01 04:17:38;;;;;;;5.82;2.58;;;25.30;94.50;;;;;;5039188;28;20032;-63
2022/05/01 04:20:16;;;;;;;8.75;5.13;;;25.30;94.60;;;;;;5043711;28;20469;-63
2022/05/01 04:22:46;;;;;;;6.95;3.67;;;25.40;95.40;;;;;;5041645;28;20468;-63
2022/05/01 04:25:29;;;;;;;5.47;2.00;;;25.70;94.90;;;;;;5043849;28;20087;-67
2022/05/01 04:28:08;;;;;;;5.43;2.33;;;25.40;95.70;;;;;;5040765;28;20674;-63
2022/05/01 04:30:35;;;;;;;10.98;2.90;;;25.50;95.50;;;;;;5043497;28;20044;-65
2022/05/01 04:33:06;;;;;;;8.75;4.88;;;25.60;95.70;;;;;;5044243;28;20378;-63
2022/05/01 04:35:40;;;;;;;9.20;4.93;;;25.60;95.90;;;;;;5035039;28;20680;-66
2022/05/01 04:38:28;;;;;;;8.40;2.80;;;25.40;95.80;;;;;;5018462;28;20441;-62
2022/05/01 04:40:59;;;;;;;5.63;2.45;;;25.50;96.20;;;;;;5043885;28;20605;-62
2022/05/01 04:43:29;;;;;;;11.95;5.55;;;25.30;96.10;;;;;;5044441;28;20021;-66
2022/05/01 04:45:57;;;;;;;7.10;2.75;;;25.50;96.00;;;;;;5044432;28;20115;-66
2022/05/01 04:48:25;;;;;;;4.07;1.88;;;25.50;96.50;;;;;;5043404;28;20429;-66
2022/05/01 04:50:53;;;;;;;6.95;3.40;;;25.50;95.70;;;;;;5042911;28;20100;-62
2022/05/01 04:53:22;;;;;;;7.88;4.28;;;25.30;96.00;;;;;;5042946;28;20505;-62
2022/05/01 04:55:52;;;;;;;6.75;2.80;;;25.20;96.60;;;;;;5042308;28;21293;-66
2022/05/01 04:58:20;;;;;;;6.78;2.10;;;25.20;96.30;;;;;;5042887;28;20021;-67
2022/05/01 05:00:48;;;;;;;5.80;1.83;;;25.20;95.60;;;;;;5043508;28;20032;-62
2022/05/01 05:03:15;;;;;;;5.90;1.80;;;25.20;96.30;;;;;;5043645;28;20487;-63
2022/05/01 05:05:42;;;;;;;4.78;1.55;;;25.20;96.40;;;;;;5041864;28;20422;-62
2022/05/01 05:10:55;;;;;;;3.15;1.27;;;25.20;96.90;;;;;;5041427;28;20079;-66
2022/05/01 05:13:27;;;;;;;5.32;1.40;;;25.20;96.30;;;;;;5041892;28;20123;-66
2022/05/01 05:15:58;;;;;;;5.78;1.92;;;25.20;96.60;;;;;;5039695;28;20036;-66
2022/05/01 05:18:25;;;;;;;5.53;1.45;;;25.20;96.50;;;;;;5040722;28;20033;-66
2022/05/01 05:20:52;;;;;;;4.53;1.40;;;25.10;96.20;;;;;;5041504;28;20033;-66
2022/05/01 05:23:19;;;;;;;5.28;1.65;;;25.00;96.50;;;;;;5042694;28;20033;-62
2022/05/01 05:25:46;;;;;;;7.63;1.77;;;25.20;96.70;;;;;;5041819;28;20373;-63
2022/05/01 05:28:13;;;;;;;6.82;1.77;;;25.40;95.70;;;;;;5041111;28;20048;-64
2022/05/01 05:30:40;;;;;;;5.13;1.77;;;25.40;96.60;;;;;;5045990;28;20029;-65
2022/05/01 05:33:07;;;;;;;7.38;1.92;;;25.70;96.50;;;;;;5047539;28;20124;-63
2022/05/01 05:35:34;;;;;;;7.18;2.10;;;25.80;96.00;;;;;;5048037;28;20517;-63
2022/05/01 05:38:01;;;;;;;7.32;1.30;;;25.70;95.70;;;;;;5046410;28;20045;-63
2022/05/01 05:40:28;;;;;;;7.10;2.00;;;25.80;95.90;;;;;;5047703;28;20021;-67
2022/05/01 05:42:55;;;;;;;5.22;1.77;;;26.00;95.00;;;;;;5046531;28;20024;-68
2022/05/01 05:45:22;;;;;;;5.53;1.42;;;26.00;95.60;;;;;;5047977;28;20082;-63
2022/05/01 05:47:49;;;;;;;9.38;2.65;;;26.00;95.30;;;;;;5048397;28;20017;-63
2022/05/01 05:50:16;;;;;;;7.05;2.15;;;26.00;95.10;;;;;;5048902;28;20125;-66
2022/05/01 05:52:44;;;;;;;9.05;3.95;;;26.00;96.10;;;;;;5046664;28;20112;-63
2022/05/01 05:55:11;;;;;;;9.25;4.18;;;26.10;94.60;;;;;;5050207;28;20036;-67
2022/05/01 05:57:38;;;;;;;5.18;2.08;;;26.00;95.50;;;;;;5045877;28;20550;-63
2022/05/01 06:00:06;;;;;;;5.15;2.05;;;25.90;96.20;;;;;;5047585;28;20470;-62
2022/05/01 06:02:33;;;;;;;4.88;1.77;;;26.20;95.50;;;;;;5047977;28;20029;-65
2022/05/01 06:05:00;;;;;;;8.30;3.22;;;26.20;95.00;;;;;;5046267;28;20017;-64
2022/05/01 06:07:26;;;;;;;6.05;1.90;;;26.10;94.80;;;;;;5047525;28;20395;-68
2022/05/01 06:09:53;;;;;;;6.60;3.00;;;26.20;94.50;;;;;;5047419;28;20790;-67
2022/05/01 06:12:20;;;;;;;5.63;2.20;;;26.00;94.50;;;;;;5045901;28;20036;-68
2022/05/01 06:14:47;;;;;;;6.88;2.28;;;25.90;95.40;;;;;;5046604;28;20013;-66
2022/05/01 06:17:14;;;;;;;6.45;2.47;;;26.00;95.60;;;;;;5047222;28;20540;-63
2022/05/01 06:19:41;;;;;;;4.82;1.80;;;26.00;95.20;;;;;;5045550;28;20025;-67
2022/05/01 06:22:08;;;;;;;10.20;2.55;;;26.20;95.50;;;;;;5046041;28;20053;-64
2022/05/01 06:24:35;;;;;;;6.78;1.75;;;26.20;95.00;;;;;;4348365;28;10000832;-64
2022/05/01 06:27:02;;;;;;;6.68;1.83;;;26.30;95.20;;;;;;5041566;28;20079;-64
2022/05/01 06:29:29;;;;;;;6.25;1.48;;;26.10;95.10;;;;;;5041676;28;20029;-64
2022/05/01 06:31:56;;;;;;;3.53;1.67;;;26.00;95.30;;;;;;5045027;28;20123;-67
2022/05/01 06:34:23;;;;;;;5.68;1.85;;;25.90;95.50;;;;;;5045406;28;20024;-67
2022/05/01 06:36:50;;;;;;;5.43;1.90;;;25.80;95.80;;;;;;5044006;28;20053;-67
2022/05/01 06:39:17;;;;;;;5.22;1.92;;;25.40;96.10;;;;;;5043265;28;20218;-67
2022/05/01 06:41:44;;;;;;;4.82;1.92;;;25.30;96.70;;;;;;5040992;28;20021;-64
2022/05/01 06:44:11;;;;;;;5.82;2.10;;;25.30;96.60;;;;;;5043884;28;20025;-64
2022/05/01 06:46:38;;;;;;;7.13;2.30;;;25.10;96.50;;;;;;5043113;28;20039;-64
2022/05/01 06:49:05;;;;;;;5.00;1.77;;;24.90;96.30;;;;;;5044478;28;20043;-64
2022/05/01 06:51:32;;;;;;;5.25;1.65;;;24.60;97.10;;;;;;5041185;28;20222;-64
2022/05/01 06:53:59;;;;;;;5.57;1.88;;;24.20;97.40;;;;;;5045115;28;20036;-63
2022/05/01 06:56:26;;;;;;;5.35;1.58;;;23.90;98.30;;;;;;5041733;28;20029;-67
2022/05/01 06:58:53;;;;;;;4.20;1.70;;;23.60;98.50;;;;;;5043075;28;20028;-66
2022/05/01 07:01:20;;;;;;;6.10;1.85;;;23.50;99.40;;;;;;5042880;28;20033;-63
2022/05/01 07:03:47;;;;;;;8.65;2.05;;;23.10;99.90;;;;;;5043494;28;20027;-66
2022/05/01 07:06:14;;;;;;;4.38;1.40;;;22.70;99.90;;;;;;5043885;28;20108;-67
2022/05/01 07:08:41;;;;;;;7.70;2.10;;;22.20;99.90;;;;;;5042961;28;20491;-64
2022/05/01 07:11:09;;;;;;;6.85;2.08;;;21.70;99.90;;;;;;5044155;28;20059;-67
2022/05/01 07:13:37;;;;;;;4.38;2.20;;;21.50;99.90;;;;;;5043143;28;20020;-71
2022/05/01 07:16:04;;;;;;;4.95;1.73;;;21.10;99.90;;;;;;5044775;28;20531;-71
2022/05/01 07:18:31;;;;;;;6.60;2.50;;;20.80;99.90;;;;;;5044370;28;20547;-68
2022/05/01 07:20:59;;;;;;;6.88;2.42;;;20.40;99.90;;;;;;5043807;28;20067;-71
2022/05/01 07:23:27;;;;;;;6.95;2.10;;;20.20;99.90;;;;;;5042677;28;20029;-68
2022/05/01 07:25:54;;;;;;;6.00;1.98;;;20.00;99.90;;;;;;5045186;28;20060;-67
2022/05/01 07:28:21;;;;;;;5.63;2.05;;;19.90;99.90;;;;;;5041598;28;20029;-70
2022/05/01 07:30:48;;;;;;;6.35;1.95;;;19.80;99.90;;;;;;5043873;28;20861;-70
2022/05/01 07:33:15;;;;;;;5.30;2.08;;;19.80;99.90;;;;;;5043348;28;20733;-66
2022/05/01 07:35:43;;;;;;;6.43;3.30;;;19.90;99.90;;;;;;5041950;28;20095;-68
2022/05/01 07:38:10;;;;;;;7.57;2.78;;;19.90;99.90;;;;;;5040241;28;20055;-69
2022/05/01 07:40:37;;;;;;;6.65;2.38;;;20.00;99.90;;;;;;5041353;28;20645;-70
2022/05/01 07:43:04;;;;;;;5.45;2.17;;;19.90;99.90;;;;;;5043376;28;20411;-66
2022/05/01 07:45:31;;;;;;;9.40;6.57;;;19.80;99.90;;;;;;5041223;28;20025;-67
2022/05/01 07:47:58;;;;;;;8.45;3.22;;;19.80;99.90;;;;;;5044167;28;20029;-68
2022/05/01 07:50:25;;;;;;;8.75;2.72;;;19.70;99.90;;;;;;5041232;28;20017;-73
2022/05/01 07:52:52;;;;;;;4.45;2.60;;;19.60;99.90;;;;;;5036482;28;20030;-68
2022/05/01 07:55:19;;;;;;;11.93;5.20;;;19.40;99.90;;;;;;5022429;28;20619;-71
2022/05/01 07:57:46;;;;;;;9.40;4.68;;;19.20;99.90;;;;;;5040902;28;20029;-65
2022/05/01 08:00:14;;;;;;;10.00;4.63;;;19.10;99.90;;;;;;5039063;28;20144;-74
2022/05/01 08:05:28;;;;;;;7.30;2.72;;;18.80;99.90;;;;;;5039588;28;20044;-72
2022/05/01 08:07:56;;;;;;;7.10;2.63;;;18.80;99.90;;;;;;5041041;28;20169;-69
2022/05/01 08:10:23;;;;;;;6.43;2.25;;;18.70;99.90;;;;;;5039567;28;20029;-66
2022/05/01 08:12:51;;;;;;;9.00;3.58;;;18.40;99.90;;;;;;5039980;28;20589;-67
2022/05/01 08:15:19;;;;;;;5.25;2.83;;;18.10;99.90;;;;;;5040014;28;20037;-73
2022/05/01 08:17:46;;;;;;;5.55;2.47;;;18.00;99.90;;;;;;5021777;28;20037;-72
2022/05/01 08:23:06;;;;;;;7.15;2.55;;;18.20;99.90;;;;;;5039467;28;20040;-66
2022/05/01 08:25:34;;;;;;;6.35;2.42;;;18.10;99.90;;;;;;5038482;28;20029;-68
2022/05/01 08:28:01;;;;;;;4.43;1.83;;;17.90;99.90;;;;;;5036383;28;20025;-68
2022/05/01 08:30:28;;;;;;;4.57;1.90;;;17.70;99.90;;;;;;5039552;28;20036;-72
2022/05/01 08:32:55;;;;;;;5.90;2.17;;;17.50;99.90;;;;;;5040151;28;20069;-68
2022/05/01 08:35:22;;;;;;;7.65;2.97;;;17.40;99.90;;;;;;5038095;28;20028;-67
2022/05/01 08:37:49;;;;;;;5.10;2.60;;;17.30;99.90;;;;;;5037936;28;20063;-68
2022/05/01 08:40:16;;;;;;;5.75;2.50;;;17.20;99.90;;;;;;5039414;28;20430;-65
2022/05/01 08:42:46;;;;;;;12.63;3.67;;;17.10;99.90;;;;;;5040009;28;20128;-69
2022/05/01 08:45:15;;;;;;;6.15;3.20;;;17.00;99.90;;;;;;5041528;28;20376;-66
2022/05/01 08:48:04;;;;;;;7.63;4.22;;;16.90;99.90;;;;;;5039468;28;20104;-69
2022/05/01 08:50:35;;;;;;;6.05;3.35;;;16.90;99.90;;;;;;5038884;28;20395;-72
2022/05/01 08:53:03;;;;;;;9.27;5.60;;;16.90;99.90;;;;;;5039205;28;20416;-64
2022/05/01 08:55:31;;;;;;;5.88;3.35;;;16.70;99.90;;;;;;5039574;28;20033;-66
2022/05/01 08:58:01;;;;;;;4.38;2.47;;;16.60;99.90;;;;;;5038842;28;20370;-68
2022/05/01 09:00:30;;;;;;;7.32;3.42;;;16.50;99.90;;;;;;5039162;28;20491;-66
2022/05/01 09:02:57;;;;;;;5.70;2.55;;;16.50;99.90;;;;;;5039181;28;20029;-69
2022/05/01 09:05:24;;;;;;;4.45;2.42;;;16.40;99.90;;;;;;5041303;28;20354;-68
2022/05/01 09:07:51;;;;;;;6.60;2.25;;;16.40;99.90;;;;;;5039892;28;20029;-68
2022/05/01 09:10:18;;;;;;;7.15;2.30;;;16.40;99.90;;;;;;5040165;28;20028;-66
2022/05/01 09:12:53;;;;;;;6.30;2.13;;;16.40;99.90;;;;;;5040016;28;20075;-67
2022/05/01 09:15:43;;;;;;;6.10;2.58;;;16.40;99.90;;;;;;5040453;28;20024;-68
2022/05/01 09:18:12;;;;;;;6.15;2.20;;;16.20;99.90;;;;;;5040723;28;21326;-66
2022/05/01 09:21:03;;;;;;;7.78;2.08;;;16.20;99.90;;;;;;5039841;28;20032;-69
2022/05/01 09:23:44;;;;;;;7.90;2.53;;;16.10;99.90;;;;;;5039896;28;20112;-69
2022/05/01 09:26:16;;;;;;;5.47;2.47;;;16.00;99.90;;;;;;5038888;28;20025;-69
2022/05/01 09:28:52;;;;;;;9.77;2.28;;;15.90;99.90;;;;;;5040547;28;20092;-69
2022/05/01 09:31:39;;;;;;;7.82;2.53;;;15.90;99.90;;;;;;5039417;28;20033;-66
2022/05/01 09:34:21;;;;;;;7.15;2.10;;;15.80;99.90;;;;;;4995823;28;20155;-67
2022/05/01 09:36:48;;;;;;;5.82;2.55;;;15.80;99.90;;;;;;4991805;28;20054;-70
2022/05/01 09:39:28;;;;;;;6.30;1.92;;;15.70;99.90;;;;;;4995307;28;20524;-69
2022/05/01 09:42:13;;;;;;;4.47;2.10;;;15.70;99.90;;;;;;4995748;28;20030;-69
2022/05/01 09:44:40;;;;;;;8.13;2.53;;;15.60;99.90;;;;;;4997228;28;20100;-68
2022/05/01 09:47:11;;;;;;;9.30;2.50;;;15.50;99.90;;;;;;4991296;28;20026;-69
2022/05/01 09:49:52;;;;;;;8.57;2.78;;;15.50;99.90;;;;;;4990956;28;20041;-69
2022/05/01 09:52:19;;;;;;;7.68;2.75;;;15.50;99.90;;;;;;4989439;28;20111;-70
2022/05/01 09:55:03;;;;;;;4.90;2.47;;;15.50;99.90;;;;;;4992543;28;20030;-69
2022/05/01 09:57:30;;;;;;;7.15;2.28;;;15.50;99.90;;;;;;4985948;28;20132;-68
2022/05/01 09:59:57;;;;;;;6.28;2.28;;;15.40;99.90;;;;;;4990692;28;20036;-69
2022/05/01 10:02:30;;;;;;;7.85;2.58;;;15.40;99.90;;;;;;4986970;28;20034;-69
2022/05/01 10:05:06;;;;;;;3.97;2.20;;;15.30;99.90;;;;;;4990205;28;20154;-69
2022/05/01 10:07:37;;;;;;;10.10;2.83;;;15.20;99.90;;;;;;4960169;28;20500;-70
2022/05/01 10:10:08;;;;;;;5.28;2.75;;;15.20;99.90;;;;;;4989326;28;20037;-69
2022/05/01 10:12:41;;;;;;;8.18;2.78;;;15.20;99.90;;;;;;5030643;28;20029;-68
2022/05/01 10:15:10;;;;;;;6.90;2.65;;;15.20;99.90;;;;;;5032710;28;20056;-70
2022/05/01 10:17:39;;;;;;;6.15;2.25;;;15.30;99.90;;;;;;5035364;28;20671;-69
2022/05/01 10:20:06;;;;;;;6.15;2.40;;;15.30;99.90;;;;;;5035993;28;20064;-68
2022/05/01 10:22:35;;;;;;;4.90;2.20;;;15.30;99.90;;;;;;5034122;28;20063;-68
2022/05/01 10:25:04;;;;;;;4.43;2.50;;;15.30;99.90;;;;;;5034451;28;20024;-67
2022/05/01 10:27:49;;;;;;;7.20;2.33;;;15.20;99.90;;;;;;5035221;28;20017;-69
2022/05/01 10:33:46;;;;;;;7.18;2.60;;;15.30;99.90;;;;;;5034196;28;20494;-68
2022/05/01 10:39:18;;;;;;;6.18;2.70;;;15.30;99.90;;;;;;5010769;28;20479;-70
2022/05/01 10:41:46;;;;;;;4.57;1.90;;;15.40;99.90;;;;;;5017616;28;20184;-72
2022/05/01 10:44:40;;;;;;;5.70;2.63;;;15.50;99.90;;;;;;5018111;28;20127;-70
2022/05/01 10:47:17;;;;;;;6.40;2.40;;;15.60;99.90;;;;;;5017832;28;20062;-67
2022/05/01 10:49:45;;;;;;;7.78;2.65;;;15.60;99.90;;;;;;5017052;28;20021;-68
2022/05/01 10:52:20;;;;;;;8.20;2.50;;;15.60;99.90;;;;;;5013042;28;20026;-67
2022/05/01 10:54:53;;;;;;;9.45;2.80;;;15.70;99.90;;;;;;5020917;28;20496;-67
2022/05/01 10:57:22;;;;;;;6.80;2.72;;;15.70;99.90;;;;;;5019767;28;20033;-68
2022/05/01 10:59:50;;;;;;;7.63;3.08;;;15.70;99.90;;;;;;5016597;28;20087;-67
2022/05/01 11:02:48;;;;;;;12.63;3.35;;;15.80;99.90;;;;;;5022147;28;20030;-66
2022/05/01 11:05:41;;;;;;;7.65;2.85;;;15.80;99.90;;;;;;5018255;28;20343;-74
2022/05/01 11:08:14;;;;;;;8.40;2.90;;;15.90;99.90;;;;;;5021926;28;20048;-67
2022/05/01 11:10:42;;;;;;;6.85;2.65;;;16.00;99.90;;;;;;5023545;28;20068;-69
2022/05/01 11:13:14;;;;;;;10.90;2.80;;;16.10;99.90;;;;;;5021316;28;20469;-70
2022/05/01 11:15:51;;;;;;;8.87;3.07;;;16.10;99.90;;;;;;5023825;28;20022;-70
2022/05/01 11:18:29;;;;;;;10.30;3.42;;;16.10;99.90;;;;;;5020782;28;20788;-67
2022/05/01 11:21:17;;;;;;;15.15;4.10;;;16.30;99.90;;;;;;5017826;28;20540;-70
2022/05/01 11:23:57;;;;;;;8.70;3.13;;;16.20;99.90;;;;;;4924460;29;20043;-67
2022/05/01 11:26:24;;;;;;;10.50;3.63;;;16.20;99.90;;;;;;4926839;29;20110;-69
2022/05/01 11:28:52;;;;;;;10.77;3.75;;;16.30;99.90;;;;;;4928892;29;20202;-67
2022/05/01 11:31:39;;;;;;;9.15;2.85;;;16.30;99.90;;;;;;4935340;29;20034;-69
2022/05/01 11:34:24;;;;;;;8.02;3.45;;;16.30;99.90;;;;;;4871724;29;20083;-69
2022/05/01 11:36:54;;;;;;;9.55;3.38;;;16.20;99.90;;;;;;4864612;29;20053;-68
2022/05/01 11:39:49;;;;;;;9.02;3.08;;;16.20;99.90;;;;;;4870473;29;20504;-67
2022/05/01 11:42:35;;;;;;;8.30;2.95;;;16.10;99.90;;;;;;4870759;29;20085;-65
2022/05/01 11:45:04;;;;;;;8.70;3.47;;;16.00;99.90;;;;;;4870870;29;20048;-67
2022/05/01 11:47:33;;;;;;;7.40;3.38;;;15.90;99.90;;;;;;4870273;29;20267;-69
2022/05/01 11:50:01;;;;;;;9.07;3.40;;;15.80;99.90;;;;;;4870127;29;20112;-70
2022/05/01 11:52:28;;;;;;;10.15;3.58;;;15.80;99.90;;;;;;4870906;29;20064;-67
2022/05/01 11:55:06;;;;;;;11.05;3.22;;;15.80;99.90;;;;;;4869704;29;20045;-70
2022/05/01 12:03:05;;;;;;;9.95;3.00;;;15.90;99.90;;;;;;4945450;29;20031;-70
2022/05/01 12:05:40;;;;;;;7.97;3.20;;;15.80;99.90;;;;;;4946690;29;20031;-69
2022/05/01 12:08:07;;;;;;;5.70;2.80;;;15.80;99.90;;;;;;4945479;28;20031;-72
2022/05/01 12:10:34;;;;;;;9.90;3.78;;;15.70;99.90;;;;;;4961592;28;20129;-70
2022/05/01 12:13:20;;;;;;;6.72;2.90;;;15.80;99.90;;;;;;5029082;28;20037;-69
2022/05/01 12:15:48;;;;;;;9.23;3.13;;;15.70;99.90;;;;;;5028266;28;20353;-70
2022/05/01 12:18:15;;;;;;;9.68;3.42;;;15.60;99.90;;;;;;5037738;28;20123;-71
2022/05/01 12:20:42;;;;;;;11.07;3.33;;;15.60;99.90;;;;;;5029087;28;20020;-68
2022/05/01 12:23:13;;;;;;;10.15;3.15;;;15.60;99.90;;;;;;5029527;28;20036;-71
2022/05/01 12:25:46;;;;;;;8.23;3.10;;;15.50;99.90;;;;;;5030548;28;20495;-70
2022/05/01 12:28:15;;;;;;;9.32;3.05;;;15.40;99.90;;;;;;5029078;28;20128;-70
2022/05/01 12:30:43;;;;;;;9.30;3.53;;;15.40;99.90;;;;;;5031796;28;20082;-71
2022/05/01 12:33:19;;;;;;;11.80;3.47;;;15.30;99.90;;;;;;5034381;28;20017;-69
2022/05/01 12:35:52;;;;;;;7.57;3.28;;;15.20;99.90;;;;;;5029655;28;20043;-71
2022/05/01 12:38:21;;;;;;;12.35;3.15;;;15.20;99.90;;;;;;5028066;28;20053;-69
2022/05/01 12:43:52;;;;;;;5.28;2.67;;;15.10;99.90;;;;;;5027214;28;20179;-70
2022/05/01 12:46:27;;;;;;;8.38;3.65;;;15.00;99.90;;;;;;5026695;28;20017;-70
2022/05/01 12:48:56;;;;;;;6.70;2.65;;;14.90;99.90;;;;;;5028902;28;20464;-72
2022/05/01 12:51:34;;;;;;;9.63;2.83;;;14.80;99.90;;;;;;5033736;28;20021;-71
2022/05/01 12:54:22;;;;;;;8.77;3.25;;;14.70;99.90;;;;;;5030018;28;20123;-69
2022/05/01 12:56:49;;;;;;;7.10;3.05;;;14.80;99.90;;;;;;5030729;28;20025;-70
2022/05/01 12:59:30;;;;;;;6.47;2.90;;;14.90;99.90;;;;;;5031535;28;20025;-71
2022/05/01 13:01:59;;;;;;;11.90;3.28;;;14.80;99.90;;;;;;5030245;28;20064;-70
2022/05/01 13:04:30;;;;;;;5.20;2.92;;;14.70;99.90;;;;;;5030145;28;20021;-70
2022/05/01 13:06:58;;;;;;;7.93;3.13;;;14.70;99.90;;;;;;5031162;28;20265;-71
2022/05/01 13:09:25;;;;;;;6.60;2.92;;;14.60;99.90;;;;;;5028944;28;20021;-71
2022/05/01 13:12:04;;;;;;;4.88;2.75;;;14.50;99.90;;;;;;5024718;28;20551;-71
2022/05/01 13:14:36;;;;;;;10.15;3.80;;;14.40;99.90;;;;;;5027624;28;20034;-72
2022/05/01 13:17:10;;;;;;;9.10;3.45;;;14.40;99.90;;;;;;5029107;28;20434;-71
2022/05/01 13:19:38;;;;;;;8.93;3.00;;;14.50;99.90;;;;;;5024259;28;20557;-71
2022/05/01 13:22:08;;;;;;;10.45;2.85;;;14.40;99.90;;;;;;5027226;28;20023;-70
2022/05/01 13:24:36;;;;;;;14.77;3.35;;;14.50;99.90;;;;;;5027752;28;20538;-72
2022/05/01 13:27:09;;;;;;;9.18;3.03;;;14.50;99.90;;;;;;5030074;28;20021;-70
2022/05/01 13:29:37;;;;;;;;;;;14.50;99.90;;;;;;5030602;28;20013;-71
2022/05/01 13:32:09;;;;;;;8.77;3.70;;;14.40;99.90;;;;;;5031024;28;20390;-71
2022/05/01 13:34:37;;;;;;;14.90;3.10;;;14.50;99.90;;;;;;5030917;28;20029;-71
2022/05/01 13:37:06;;;;;;;8.35;3.45;;;14.60;99.90;;;;;;5030690;28;20045;-68